Time;durP1;ratioP1;P1;durP2;ratioP2;P2;SDS_P1;SDS_P2;PMS_P1;PMS_P2;Temp;Humidity;BMP_temperature;BMP_pressure;BME280_temperature;BME280_humidity;BME280_pressure;Samples;Min_cycle;Max_cycle;Signal;HPM_P1;HPM_P2
2023/03/17 00:01:19;;;;;;;4.40;1.80;;;;;;;3.91;43.03;100907.28;5058395;28;20090;-69
2023/03/17 00:03:48;;;;;;;5.03;1.60;;;;;;;4.05;42.65;100908.84;5055778;28;20523;-70
2023/03/17 00:06:23;;;;;;;3.03;1.77;;;;;;;4.01;42.71;100914.06;5057920;28;20044;-70
2023/03/17 00:08:49;;;;;;;3.70;1.65;;;;;;;4.10;42.71;100917.44;5056379;28;20130;-70
2023/03/17 00:11:16;;;;;;;3.92;2.10;;;;;;;4.01;43.26;100915.81;5057571;28;20036;-70
2023/03/17 00:13:43;;;;;;;6.07;2.00;;;;;;;3.87;43.36;100908.19;5056241;28;20043;-70
2023/03/17 00:16:19;;;;;;;3.83;2.13;;;;;;;3.95;43.38;100902.94;5059155;28;20041;-76
2023/03/17 00:18:46;;;;;;;2.13;1.58;;;;;;;4.04;43.06;100907.16;5062780;28;20063;-77
2023/03/17 00:21:13;;;;;;;3.40;2.13;;;;;;;4.15;42.93;100889.78;5040418;28;20033;-74
2023/03/17 00:23:40;;;;;;;3.42;1.92;;;;;;;4.00;43.39;100893.38;5054470;28;20056;-74
2023/03/17 00:26:06;;;;;;;3.38;1.80;;;;;;;4.13;43.02;100891.50;5055621;28;20047;-74
2023/03/17 00:28:32;;;;;;;4.68;1.85;;;;;;;4.12;43.21;100889.78;5056492;28;20046;-75
2023/03/17 00:30:59;;;;;;;4.43;1.92;;;;;;;4.16;43.43;100881.13;5056641;28;20090;-74
2023/03/17 00:33:28;;;;;;;3.20;1.75;;;;;;;4.04;43.28;100889.91;5057890;28;20059;-74
2023/03/17 00:35:54;;;;;;;3.92;1.75;;;;;;;3.99;43.10;100899.44;5056014;28;20052;-70
2023/03/17 00:38:23;;;;;;;4.28;1.88;;;;;;;4.04;43.64;100899.41;5052964;28;20032;-71
2023/03/17 00:40:50;;;;;;;3.65;1.63;;;;;;;4.14;43.43;100898.38;5056361;28;20074;-73
2023/03/17 00:43:16;;;;;;;4.60;2.10;;;;;;;4.21;43.14;100894.88;5044422;28;20489;-74
2023/03/17 00:45:42;;;;;;;4.47;2.38;;;;;;;4.22;43.18;100887.06;5057406;28;20400;-72
2023/03/17 00:48:15;;;;;;;4.95;2.55;;;;;;;4.14;43.67;100882.88;5055891;28;20038;-71
2023/03/17 00:50:43;;;;;;;6.25;1.83;;;;;;;4.25;43.07;100885.31;5056835;28;20285;-71
2023/03/17 00:53:12;;;;;;;4.93;2.60;;;;;;;4.02;44.00;100895.06;5055668;28;20032;-74
2023/03/17 00:55:39;;;;;;;3.08;2.03;;;;;;;4.22;43.73;100897.41;5055504;28;20044;-73
2023/03/17 00:58:26;;;;;;;6.40;2.50;;;;;;;4.34;43.29;100899.00;5037349;28;20349;-72
2023/03/17 01:00:52;;;;;;;3.97;2.33;;;;;;;4.33;42.94;100886.94;5057148;28;20135;-72
2023/03/17 01:03:18;;;;;;;4.03;2.40;;;;;;;4.33;43.41;100880.91;5054560;28;20068;-72
2023/03/17 01:05:45;;;;;;;5.47;1.95;;;;;;;4.20;43.58;100895.72;5056493;28;20394;-71
2023/03/17 01:08:11;;;;;;;5.05;2.30;;;;;;;4.18;43.77;100892.31;5055694;28;20093;-72
2023/03/17 01:10:40;;;;;;;4.45;1.95;;;;;;;4.26;43.23;100882.72;5057231;28;20059;-71
2023/03/17 01:13:06;;;;;;;3.50;2.00;;;;;;;4.25;43.35;100881.00;5055421;28;20028;-72
2023/03/17 01:15:33;;;;;;;2.67;1.75;;;;;;;4.22;43.55;100886.22;5055194;28;20109;-72
2023/03/17 01:18:00;;;;;;;4.50;2.10;;;;;;;4.27;43.50;100878.38;5044289;28;20035;-73
2023/03/17 01:20:29;;;;;;;4.70;2.17;;;;;;;4.31;43.24;100870.56;5036672;28;20100;-72
2023/03/17 01:22:56;;;;;;;4.05;2.33;;;;;;;4.28;43.78;100880.97;5054591;28;20636;-73
2023/03/17 01:25:23;;;;;;;2.97;1.90;;;;;;;4.29;43.40;100887.84;5058341;28;20246;-76
2023/03/17 01:27:49;;;;;;;4.57;2.55;;;;;;;4.25;43.57;100885.31;5059675;28;20119;-76
2023/03/17 01:30:31;;;;;;;5.20;2.33;;;;;;;4.19;43.83;100886.28;5056292;28;21967;-76
2023/03/17 01:32:58;;;;;;;3.40;1.90;;;;;;;4.20;43.95;100887.97;5056138;28;20042;-77
2023/03/17 01:35:25;;;;;;;2.80;2.03;;;;;;;4.32;43.37;100887.81;5056737;28;20052;-76
2023/03/17 01:37:51;;;;;;;4.70;2.35;;;;;;;4.18;43.62;100880.22;5057327;28;20060;-76
2023/03/17 01:40:23;;;;;;;4.78;2.22;;;;;;;4.24;43.62;100875.84;5041935;28;20500;-75
2023/03/17 01:42:52;;;;;;;;;;;;;;;4.41;43.46;100877.34;5058786;28;20129;-76
2023/03/17 01:45:55;;;;;;;6.65;2.08;;;;;;;4.35;43.54;100872.22;5054353;28;20474;-75
2023/03/17 01:48:21;;;;;;;2.67;1.75;;;;;;;4.34;43.31;100880.88;5055727;28;20059;-75
2023/03/17 01:50:48;;;;;;;5.68;1.92;;;;;;;4.10;44.45;100866.53;5053558;28;20048;-77
2023/03/17 01:53:14;;;;;;;2.75;1.63;;;;;;;4.36;43.62;100868.78;5070353;28;20079;-76
2023/03/17 01:55:43;;;;;;;4.90;2.97;;;;;;;4.29;43.81;100855.94;5068767;28;20079;-76
2023/03/17 01:58:09;;;;;;;3.22;2.22;;;;;;;4.11;44.21;100846.69;5057030;28;20043;-78
2023/03/17 02:00:35;;;;;;;4.95;2.42;;;;;;;4.22;43.87;100839.66;5043735;28;20576;-76
2023/03/17 02:03:02;;;;;;;4.28;2.42;;;;;;;4.14;43.99;100828.53;5041783;28;20200;-77
2023/03/17 02:05:30;;;;;;;2.70;1.80;;;;;;;4.17;44.19;100821.59;5055825;28;20045;-73
2023/03/17 02:07:56;;;;;;;5.30;2.70;;;;;;;4.21;44.08;100819.84;5056275;28;20050;-73
2023/03/17 02:10:28;;;;;;;7.70;2.22;;;;;;;4.37;43.50;100818.72;5041037;28;20187;-73
2023/03/17 02:12:58;;;;;;;2.78;2.17;;;;;;;4.50;43.56;100821.13;5056856;28;20040;-75
2023/03/17 02:15:36;;;;;;;3.92;2.30;;;;;;;4.40;43.51;100818.66;5054392;28;20066;-74
2023/03/17 02:18:01;;;;;;;4.50;2.55;;;;;;;4.40;43.32;100807.47;5044139;28;20386;-76
2023/03/17 02:20:26;;;;;;;3.63;2.78;;;;;;;4.34;43.53;100808.44;5046715;28;20036;-77
2023/03/17 02:22:53;;;;;;;2.42;2.05;;;;;;;4.13;44.29;100811.31;5057014;28;21066;-76
2023/03/17 02:25:22;;;;;;;4.80;3.05;;;;;;;4.10;44.05;100808.78;5053235;28;20040;-76
2023/03/17 02:27:50;;;;;;;3.10;2.30;;;;;;;3.85;44.57;100809.13;5043372;28;20044;-70
2023/03/17 02:30:20;;;;;;;3.50;1.50;;;;;;;4.20;44.15;100802.59;5034483;28;20032;-66
2023/03/17 02:32:46;;;;;;;2.60;1.90;;;;;;;4.21;43.93;100806.91;5054967;28;20045;-65
2023/03/17 02:35:12;;;;;;;2.90;1.83;;;;;;;4.30;44.08;100803.34;5053397;28;20299;-66
2023/03/17 02:37:42;;;;;;;6.05;2.50;;;;;;;4.20;44.05;100800.00;5044189;28;20032;-68
2023/03/17 02:40:10;;;;;;;7.32;2.33;;;;;;;4.40;43.44;100803.16;5054415;28;20040;-67
2023/03/17 02:42:38;;;;;;;3.47;1.77;;;;;;;4.30;43.87;100788.66;5052239;28;20056;-65
2023/03/17 02:45:05;;;;;;;4.43;2.25;;;;;;;4.15;43.91;100760.44;5052718;28;20072;-67
2023/03/17 02:47:31;;;;;;;5.38;1.73;;;;;;;4.19;43.92;100767.25;5041130;28;20039;-67
2023/03/17 02:49:57;;;;;;;6.00;2.40;;;;;;;4.25;43.87;100777.50;5057540;28;20094;-67
2023/03/17 02:52:23;;;;;;;2.83;2.17;;;;;;;4.23;43.64;100784.47;5056885;28;20028;-67
2023/03/17 02:54:49;;;;;;;5.47;2.13;;;;;;;4.36;43.60;100791.16;5057532;28;20040;-67
2023/03/17 02:57:14;;;;;;;3.88;1.98;;;;;;;4.32;43.42;100791.19;5029874;28;20043;-67
2023/03/17 02:59:40;;;;;;;3.80;2.70;;;;;;;4.17;44.08;100774.19;5057412;28;20405;-66
2023/03/17 03:02:06;;;;;;;6.25;2.60;;;;;;;4.05;43.91;100774.34;5057534;28;20032;-66
2023/03/17 03:04:31;;;;;;;2.92;2.15;;;;;;;4.29;43.57;100776.56;5059176;28;20051;-66
2023/03/17 03:06:56;;;;;;;5.10;2.22;;;;;;;4.00;44.39;100777.84;5056701;28;20821;-65
2023/03/17 03:09:23;;;;;;;6.03;2.10;;;;;;;4.27;43.47;100782.66;5056798;28;20073;-67
2023/03/17 03:11:48;;;;;;;2.67;1.65;;;;;;;4.37;43.57;100782.50;5057220;28;20032;-69
2023/03/17 03:14:14;;;;;;;4.88;1.92;;;;;;;4.25;43.58;100787.84;5056140;28;20702;-68
2023/03/17 03:16:39;;;;;;;3.35;2.42;;;;;;;4.27;43.72;100780.91;5057071;28;20033;-67
2023/03/17 03:19:06;;;;;;;2.92;2.25;;;;;;;4.41;43.19;100776.41;5059257;28;20135;-66
2023/03/17 03:21:32;;;;;;;5.82;2.40;;;;;;;4.42;43.42;100775.50;5057530;28;20024;-66
2023/03/17 03:24:00;;;;;;;3.83;2.22;;;;;;;4.47;42.85;100780.59;5057483;28;20036;-67
2023/03/17 03:26:26;;;;;;;2.72;1.75;;;;;;;4.43;43.08;100776.34;5055825;28;20489;-70
2023/03/17 03:28:52;;;;;;;2.75;1.83;;;;;;;4.24;43.65;100780.97;5057511;28;20043;-65
2023/03/17 03:31:18;;;;;;;4.22;2.03;;;;;;;4.16;43.54;100782.81;5057565;28;20041;-67
2023/03/17 03:33:44;;;;;;;3.95;2.15;;;;;;;4.28;43.26;100782.66;5058343;28;20043;-68
2023/03/17 03:36:10;;;;;;;3.75;1.73;;;;;;;4.13;43.77;100786.31;5056454;28;20404;-67
2023/03/17 03:38:36;;;;;;;2.97;1.67;;;;;;;4.13;43.59;100780.28;5055592;28;20028;-66
2023/03/17 03:41:01;;;;;;;4.05;2.17;;;;;;;4.04;43.89;100783.00;5059379;28;20560;-70
2023/03/17 03:43:27;;;;;;;6.45;1.55;;;;;;;4.10;43.52;100785.50;5055284;28;20152;-71
2023/03/17 03:45:53;;;;;;;6.97;2.17;;;;;;;4.10;43.70;100775.16;5040300;28;20042;-71
2023/03/17 03:48:19;;;;;;;3.17;1.35;;;;;;;3.99;44.28;100772.72;5056324;28;20678;-71
2023/03/17 03:50:45;;;;;;;6.80;1.98;;;;;;;3.67;45.11;100780.91;5057860;28;20134;-70
2023/03/17 03:53:11;;;;;;;4.88;1.67;;;;;;;3.92;44.06;100778.88;5053273;28;20147;-71
2023/03/17 03:55:36;;;;;;;4.15;2.15;;;;;;;4.04;44.02;100767.50;5055172;28;20135;-70
2023/03/17 03:58:02;;;;;;;4.18;2.38;;;;;;;3.58;44.81;100762.06;5058263;28;20028;-73
2023/03/17 04:00:27;;;;;;;3.03;2.15;;;;;;;4.00;44.01;100764.94;5055446;28;22178;-81
2023/03/17 04:02:52;;;;;;;3.78;1.67;;;;;;;4.10;43.80;100757.06;5050187;28;20028;-72
2023/03/17 04:05:18;;;;;;;3.75;1.98;;;;;;;4.19;43.50;100749.16;5042290;28;20044;-69
2023/03/17 04:07:44;;;;;;;2.85;1.65;;;;;;;4.16;43.63;100752.66;5058595;28;20036;-71
2023/03/17 04:10:11;;;;;;;3.47;1.98;;;;;;;4.04;43.63;100757.16;5056965;28;20040;-72
2023/03/17 04:12:38;;;;;;;4.50;2.10;;;;;;;4.22;43.47;100764.63;5059344;28;20079;-73
2023/03/17 04:15:05;;;;;;;3.50;1.83;;;;;;;3.96;43.59;100781.38;5056591;28;20333;-72
2023/03/17 04:17:31;;;;;;;3.20;1.75;;;;;;;4.15;43.74;100781.13;5057492;28;20032;-69
2023/03/17 04:19:57;;;;;;;3.40;2.00;;;;;;;3.77;44.60;100772.16;5054488;28;20052;-70
2023/03/17 04:22:22;;;;;;;7.57;1.98;;;;;;;3.90;44.13;100776.28;5056730;28;20130;-70
2023/03/17 04:24:48;;;;;;;3.13;1.67;;;;;;;4.08;43.84;100756.22;5055683;28;20101;-71
2023/03/17 04:27:14;;;;;;;5.57;2.38;;;;;;;3.80;44.58;100775.53;5057400;28;20036;-71
2023/03/17 04:29:41;;;;;;;4.35;1.95;;;;;;;3.94;43.89;100766.75;5057304;28;20138;-72
2023/03/17 04:32:07;;;;;;;3.40;1.33;;;;;;;3.74;44.37;100769.63;5058162;28;20036;-73
2023/03/17 04:34:32;;;;;;;3.05;1.38;;;;;;;3.99;43.84;100776.16;5055612;28;20036;-72
2023/03/17 04:36:58;;;;;;;4.45;1.80;;;;;;;4.06;43.94;100771.75;5058395;28;20059;-75
2023/03/17 04:39:24;;;;;;;4.20;2.20;;;;;;;3.84;44.37;100772.94;5041374;28;20428;-71
2023/03/17 04:41:49;;;;;;;1.95;1.20;;;;;;;4.10;43.92;100762.22;5055312;28;20074;-70
2023/03/17 04:44:15;;;;;;;5.60;2.08;;;;;;;4.19;43.39;100757.75;5054105;28;20040;-72
2023/03/17 04:46:40;;;;;;;2.30;1.17;;;;;;;3.93;44.13;100760.72;5056106;28;20108;-71
2023/03/17 04:49:07;;;;;;;4.53;1.67;;;;;;;4.18;43.59;100755.19;5057519;28;20036;-71
2023/03/17 04:51:34;;;;;;;4.07;1.50;;;;;;;4.10;43.67;100755.31;5054947;28;20032;-71
2023/03/17 04:54:00;;;;;;;2.78;1.45;;;;;;;4.16;43.81;100751.78;5056661;28;20294;-72
2023/03/17 04:56:25;;;;;;;5.50;1.60;;;;;;;4.26;43.51;100749.91;5054037;28;20051;-70
2023/03/17 04:58:51;;;;;;;5.93;2.65;;;;;;;4.20;43.27;100753.44;5056860;28;20127;-72
2023/03/17 05:01:16;;;;;;;2.70;1.67;;;;;;;4.14;43.88;100756.09;5054907;28;20173;-69
2023/03/17 05:03:42;;;;;;;2.22;1.67;;;;;;;4.17;43.14;100751.75;5043602;28;20032;-71
2023/03/17 05:06:08;;;;;;;2.65;1.33;;;;;;;3.99;43.69;100760.66;5057610;28;20041;-72
2023/03/17 05:08:33;;;;;;;2.40;1.50;;;;;;;4.07;43.64;100751.91;5053675;28;20563;-74
2023/03/17 05:11:00;;;;;;;5.35;1.90;;;;;;;4.17;43.06;100745.75;5056903;28;20040;-70
2023/03/17 05:13:26;;;;;;;6.88;1.45;;;;;;;4.05;43.57;100751.06;5054440;28;20211;-71
2023/03/17 05:15:53;;;;;;;3.03;1.45;;;;;;;3.92;43.68;100740.94;5041562;28;20040;-71
2023/03/17 05:18:20;;;;;;;3.90;1.58;;;;;;;4.01;43.55;100748.56;5051524;28;20036;-72
2023/03/17 05:20:45;;;;;;;2.45;1.50;;;;;;;4.01;43.67;100745.13;5054229;28;20036;-72
2023/03/17 05:23:11;;;;;;;3.80;1.45;;;;;;;3.86;43.80;100737.56;5054899;28;20052;-70
2023/03/17 05:25:38;;;;;;;2.70;1.48;;;;;;;4.04;43.65;100741.63;5037380;28;20059;-73
2023/03/17 05:28:04;;;;;;;3.97;1.45;;;;;;;4.00;43.38;100740.81;5054245;28;20063;-72
2023/03/17 05:30:29;;;;;;;4.55;1.70;;;;;;;4.10;43.23;100749.31;5055716;28;20143;-72
2023/03/17 05:32:55;;;;;;;8.15;2.28;;;;;;;3.69;44.26;100753.31;5056093;28;20032;-75
2023/03/17 05:35:21;;;;;;;3.33;1.83;;;;;;;3.96;43.61;100750.34;5053556;28;20044;-71
2023/03/17 05:37:46;;;;;;;4.10;1.58;;;;;;;4.02;43.07;100755.41;5055984;28;20911;-73
2023/03/17 05:40:15;;;;;;;3.50;1.65;;;;;;;3.58;44.37;100750.84;5054689;28;20405;-66
2023/03/17 05:42:41;;;;;;;2.85;1.15;;;;;;;3.81;43.94;100758.31;5054112;28;20063;-68
2023/03/17 05:45:07;;;;;;;3.97;1.92;;;;;;;3.80;44.03;100761.78;5054816;28;20521;-70
2023/03/17 05:47:34;;;;;;;3.83;1.55;;;;;;;3.73;44.24;100768.75;5042192;28;20487;-70
2023/03/17 05:50:00;;;;;;;5.32;1.48;;;;;;;3.83;43.66;100759.16;5054333;28;20040;-70
2023/03/17 05:52:27;;;;;;;2.85;1.40;;;;;;;3.88;43.55;100754.78;5040601;28;20032;-72
2023/03/17 05:54:53;;;;;;;4.03;1.73;;;;;;;3.91;43.54;100754.72;5053083;28;20040;-72
2023/03/17 05:57:20;;;;;;;2.42;0.93;;;;;;;3.89;43.62;100753.88;5055500;28;20043;-71
2023/03/17 05:59:46;;;;;;;4.30;1.60;;;;;;;3.89;43.50;100753.88;5052223;28;20044;-73
2023/03/17 06:02:13;;;;;;;3.05;1.48;;;;;;;3.93;43.58;100759.88;5055397;28;20033;-72
2023/03/17 06:04:42;;;;;;;4.95;1.55;;;;;;;3.84;43.59;100747.94;5049999;28;20238;-71
2023/03/17 06:07:09;;;;;;;3.67;1.83;;;;;;;3.80;43.90;100748.84;5048990;28;20024;-74
2023/03/17 06:09:35;;;;;;;4.32;2.38;;;;;;;3.91;43.83;100753.88;5031985;28;20952;-74
2023/03/17 06:12:00;;;;;;;5.47;1.95;;;;;;;3.95;43.93;100748.63;5048753;28;20036;-76
2023/03/17 06:14:26;;;;;;;2.38;1.80;;;;;;;3.94;43.79;100757.28;5050740;28;20055;-71
2023/03/17 06:16:52;;;;;;;3.35;1.52;;;;;;;4.02;43.91;100745.06;5051814;28;20055;-71
2023/03/17 06:19:17;;;;;;;3.20;1.52;;;;;;;3.82;43.70;100747.09;5051977;28;20529;-72
2023/03/17 06:21:43;;;;;;;2.67;2.17;;;;;;;4.27;43.50;100749.03;5051411;28;20142;-74
2023/03/17 06:24:09;;;;;;;3.33;1.65;;;;;;;4.56;43.41;100748.53;5060932;28;20415;-72
2023/03/17 06:26:38;;;;;;;7.72;1.95;;;;;;;4.69;42.50;100744.88;5053579;28;20035;-72
2023/03/17 06:29:08;;;;;;;5.60;1.48;;;;;;;5.14;41.99;100747.53;5043693;28;20153;-71
2023/03/17 06:31:34;;;;;;;3.22;1.52;;;;;;;5.77;40.70;100740.19;5052100;28;20024;-71
2023/03/17 06:34:00;;;;;;;2.20;1.10;;;;;;;6.59;39.10;100732.19;5059141;28;20032;-72
2023/03/17 06:36:26;;;;;;;2.85;1.33;;;;;;;7.39;37.46;100745.63;5047349;28;20067;-73
2023/03/17 06:38:52;;;;;;;6.30;2.28;;;;;;;8.61;35.07;100749.72;5054873;28;20083;-74
2023/03/17 06:41:18;;;;;;;3.00;1.20;;;;;;;9.44;33.61;100759.84;5053402;28;20029;-69
2023/03/17 06:43:44;;;;;;;5.18;1.27;;;;;;;10.63;31.62;100751.66;5040846;28;20151;-67
2023/03/17 06:46:10;;;;;;;4.03;1.67;;;;;;;11.58;30.22;100751.91;5054663;28;20048;-68
2023/03/17 06:48:35;;;;;;;2.35;1.52;;;;;;;12.89;27.67;100751.66;5033465;28;20458;-70
2023/03/17 06:51:01;;;;;;;2.17;1.10;;;;;;;12.33;28.43;100763.22;5042557;28;20037;-72
2023/03/17 06:53:27;;;;;;;2.33;1.15;;;;;;;10.45;30.50;100755.06;5048197;28;20077;-71
2023/03/17 06:55:53;;;;;;;3.17;1.63;;;;;;;8.96;33.39;100767.63;5052872;28;20040;-72
2023/03/17 06:58:19;;;;;;;4.70;2.00;;;;;;;8.20;34.99;100762.31;5051503;28;20716;-72
2023/03/17 07:00:47;;;;;;;3.78;1.17;;;;;;;7.32;36.41;100755.34;5050330;28;20688;-70
2023/03/17 07:03:14;;;;;;;2.63;1.20;;;;;;;6.93;37.26;100761.63;5033264;28;20035;-71
2023/03/17 07:05:41;;;;;;;3.08;1.70;;;;;;;5.71;39.84;100776.66;5052390;28;20084;-69
2023/03/17 07:08:07;;;;;;;5.82;1.10;;;;;;;6.34;39.09;100762.28;5063266;28;20032;-72
2023/03/17 07:10:34;;;;;;;5.25;1.73;;;;;;;6.95;38.08;100762.47;5063435;28;20343;-70
2023/03/17 07:13:01;;;;;;;2.28;0.90;;;;;;;8.40;35.87;100761.69;5070123;28;20516;-69
2023/03/17 07:15:27;;;;;;;3.58;1.73;;;;;;;11.56;30.15;100753.75;5063305;28;20405;-69
2023/03/17 07:17:53;;;;;;;2.30;1.15;;;;;;;14.15;25.93;100750.13;5053794;28;21383;-69
2023/03/17 07:20:19;;;;;;;1.92;0.93;;;;;;;16.50;23.60;100740.06;5050751;28;20098;-69
2023/03/17 07:22:45;;;;;;;3.03;0.93;;;;;;;15.81;23.00;100726.94;5051603;28;20135;-69
2023/03/17 07:25:11;;;;;;;3.40;1.33;;;;;;;12.28;27.41;100732.81;5052509;28;20212;-69
2023/03/17 07:27:37;;;;;;;2.47;1.30;;;;;;;10.22;30.62;100739.41;5048628;28;20092;-69
2023/03/17 07:30:04;;;;;;;3.97;0.82;;;;;;;8.87;33.54;100741.84;5050638;28;20044;-69
2023/03/17 07:32:31;;;;;;;3.05;1.77;;;;;;;7.87;35.57;100742.50;5032611;28;20050;-69
2023/03/17 07:34:57;;;;;;;4.68;1.33;;;;;;;7.32;36.50;100739.75;5050476;28;20064;-69
2023/03/17 07:37:23;;;;;;;3.65;1.17;;;;;;;7.19;36.83;100738.41;5052489;28;20115;-69
2023/03/17 07:39:49;;;;;;;3.40;1.13;;;;;;;7.67;35.60;100732.72;5049108;28;20086;-70
2023/03/17 07:42:16;;;;;;;2.67;1.60;;;;;;;8.15;35.06;100731.22;5051770;28;20083;-70
2023/03/17 07:44:42;;;;;;;2.63;1.30;;;;;;;8.58;34.59;100724.59;5049824;28;20173;-72
2023/03/17 07:47:10;;;;;;;4.45;1.45;;;;;;;8.00;35.36;100727.34;5053392;28;20761;-70
2023/03/17 07:49:36;;;;;;;3.08;1.23;;;;;;;9.07;33.84;100722.06;5048745;28;20449;-70
2023/03/17 07:52:02;;;;;;;2.55;1.20;;;;;;;10.32;32.14;100700.69;5050221;28;20093;-70
2023/03/17 07:54:28;;;;;;;2.78;1.20;;;;;;;9.95;31.95;100701.38;5051770;28;20435;-70
2023/03/17 07:56:54;;;;;;;2.53;1.48;;;;;;;8.25;34.14;100709.22;5047439;28;20058;-71
2023/03/17 07:59:20;;;;;;;2.17;1.00;;;;;;;8.06;35.29;100710.69;5049673;28;20691;-70
2023/03/17 08:01:46;;;;;;;2.65;1.67;;;;;;;8.33;34.86;100703.72;5039036;28;20340;-71
2023/03/17 08:04:12;;;;;;;2.60;1.15;;;;;;;9.53;33.20;100708.16;5050178;28;20091;-70
2023/03/17 08:06:40;;;;;;;1.70;1.00;;;;;;;10.45;32.29;100698.41;5047437;28;20119;-70
2023/03/17 08:09:07;;;;;;;2.30;1.40;;;;;;;9.70;32.40;100727.53;5050022;28;20409;-70
2023/03/17 08:11:34;;;;;;;2.83;1.23;;;;;;;8.71;34.20;100725.91;5046115;28;21024;-70
2023/03/17 08:14:01;;;;;;;2.22;1.50;;;;;;;7.80;35.98;100735.81;5051272;28;20293;-70
2023/03/17 08:16:27;;;;;;;2.42;1.48;;;;;;;7.61;37.02;100755.47;5048711;28;20035;-70
2023/03/17 08:18:54;;;;;;;8.95;1.48;;;;;;;7.71;36.52;100723.03;5046927;28;20074;-71
2023/03/17 08:21:19;;;;;;;9.30;1.75;;;;;;;7.97;36.61;100744.84;5048746;28;20366;-70
2023/03/17 08:23:46;;;;;;;2.22;1.38;;;;;;;10.36;32.60;100733.63;5048182;28;20481;-70
2023/03/17 08:26:13;;;;;;;2.58;1.23;;;;;;;13.48;28.12;100734.53;5051315;28;20077;-71
2023/03/17 08:28:39;;;;;;;2.80;1.00;;;;;;;14.14;26.68;100737.91;5046920;28;20049;-71
2023/03/17 08:31:14;;;;;;;3.38;1.27;;;;;;;15.48;24.88;100735.22;5052002;28;20043;-70
2023/03/17 08:33:41;;;;;;;3.58;1.58;;;;;;;14.94;25.10;100735.88;5047890;28;20032;-70
2023/03/17 08:36:08;;;;;;;3.88;0.77;;;;;;;16.58;23.39;100721.91;5051445;28;20032;-70
2023/03/17 08:38:35;;;;;;;3.33;0.95;;;;;;;16.05;23.65;100716.63;5047738;28;20569;-70
2023/03/17 08:41:02;;;;;;;4.97;2.53;;;;;;;15.01;25.08;100715.28;5051485;28;20386;-70
2023/03/17 08:43:27;;;;;;;1.77;1.00;;;;;;;14.99;24.97;100712.72;5048199;28;20051;-69
2023/03/17 08:46:01;;;;;;;2.65;1.48;;;;;;;14.39;26.30;100707.56;5048455;28;20126;-70
2023/03/17 08:48:27;;;;;;;2.78;1.20;;;;;;;14.85;26.04;100689.06;5050528;28;20377;-70
2023/03/17 08:50:53;;;;;;;3.92;1.25;;;;;;;15.05;25.31;100682.56;5047521;28;22279;-70
2023/03/17 08:53:19;;;;;;;2.08;1.27;;;;;;;14.54;26.17;100681.25;5050067;28;20048;-69
2023/03/17 08:55:44;;;;;;;1.95;1.00;;;;;;;15.04;25.66;100675.63;5037647;28;20072;-70
2023/03/17 08:58:10;;;;;;;2.97;1.25;;;;;;;14.03;26.77;100675.47;5050915;28;20600;-70
2023/03/17 09:00:35;;;;;;;2.33;1.20;;;;;;;14.76;25.84;100670.25;5048280;28;20048;-69
2023/03/17 09:03:02;;;;;;;4.20;1.23;;;;;;;13.66;27.44;100674.94;5036367;28;20044;-69
2023/03/17 09:05:27;;;;;;;2.65;0.98;;;;;;;13.85;27.21;100677.38;5048143;28;20188;-70
2023/03/17 09:07:53;;;;;;;4.82;1.45;;;;;;;13.29;28.83;100669.06;5047268;28;20352;-70
2023/03/17 09:10:21;;;;;;;3.40;1.10;;;;;;;13.51;27.41;100652.94;5044889;28;20059;-71
2023/03/17 09:12:47;;;;;;;4.32;0.95;;;;;;;12.82;28.64;100671.59;5046961;28;20040;-70
2023/03/17 09:15:13;;;;;;;4.15;1.30;;;;;;;12.93;28.66;100671.88;5046020;28;20509;-69
2023/03/17 09:17:40;;;;;;;2.15;1.27;;;;;;;12.79;29.22;100680.47;5045861;28;20503;-70
2023/03/17 09:20:06;;;;;;;3.13;0.93;;;;;;;13.32;28.84;100668.06;5047196;28;20069;-71
2023/03/17 09:22:31;;;;;;;4.97;1.30;;;;;;;12.33;29.86;100671.47;5047283;28;20108;-71
2023/03/17 09:24:57;;;;;;;3.45;1.20;;;;;;;12.24;30.03;100673.63;5047290;28;21965;-69
2023/03/17 09:27:22;;;;;;;3.67;1.38;;;;;;;13.02;29.42;100666.13;5049618;28;20106;-70
2023/03/17 09:29:48;;;;;;;2.67;0.98;;;;;;;12.09;30.39;100658.72;5047841;28;20316;-69
2023/03/17 09:32:14;;;;;;;5.10;0.95;;;;;;;12.73;28.80;100640.63;5049703;28;20101;-70
2023/03/17 09:34:40;;;;;;;4.90;1.35;;;;;;;11.64;30.79;100647.75;5046491;28;20711;-71
2023/03/17 09:37:08;;;;;;;4.68;2.20;;;;;;;12.28;31.06;100653.38;5045067;28;20032;-70
2023/03/17 09:39:34;;;;;;;3.25;2.17;;;;;;;11.19;32.23;100662.06;5043466;28;20117;-71
2023/03/17 09:42:33;;;;;;;2.38;1.30;;;;;;;11.76;31.78;100669.88;5049157;28;20059;-71
2023/03/17 09:45:23;;;;;;;3.30;1.13;;;;;;;13.18;29.64;100645.16;5047562;28;20291;-71
2023/03/17 09:48:27;;;;;;;4.40;1.35;;;;;;;14.48;28.45;100654.47;5047974;28;20147;-70
2023/03/17 09:50:57;;;;;;;2.13;0.90;;;;;;;14.89;26.85;100648.47;5027141;28;20053;-70
2023/03/17 09:53:34;;;;;;;2.30;1.33;;;;;;;14.35;28.33;100639.41;5048773;28;20379;-70
2023/03/17 09:56:06;;;;;;;2.20;1.13;;;;;;;14.27;28.19;100641.63;5044693;28;20190;-72
2023/03/17 09:58:33;;;;;;;3.97;0.75;;;;;;;14.67;28.18;100654.19;5044776;28;20695;-70
2023/03/17 10:01:00;;;;;;;2.92;1.05;;;;;;;14.34;28.62;100642.97;5045397;28;20709;-71
2023/03/17 10:03:26;;;;;;;4.43;1.00;;;;;;;14.10;28.83;100649.69;5048322;28;20031;-70
2023/03/17 10:05:52;;;;;;;1.92;1.00;;;;;;;14.18;28.62;100654.47;5044202;28;20044;-71
2023/03/17 10:08:32;;;;;;;2.55;1.08;;;;;;;14.37;29.09;100660.34;5051607;28;20432;-70
2023/03/17 10:11:13;;;;;;;1.73;1.02;;;;;;;14.13;28.42;100665.25;5049278;28;20604;-71
2023/03/17 10:14:03;;;;;;;3.30;0.90;;;;;;;14.75;28.82;100657.22;5051058;28;20109;-71
2023/03/17 10:16:43;;;;;;;3.55;1.40;;;;;;;14.26;28.24;100660.13;5053891;28;20721;-71
2023/03/17 10:19:20;;;;;;;3.55;1.23;;;;;;;14.85;27.88;100668.84;5051822;28;20097;-70
2023/03/17 10:21:52;;;;;;;2.28;0.77;;;;;;;15.28;27.52;100670.63;5048884;28;20056;-69
2023/03/17 10:24:20;;;;;;;2.30;1.42;;;;;;;15.18;27.64;100665.91;5047152;28;20040;-70
2023/03/17 10:26:49;;;;;;;2.60;0.95;;;;;;;14.16;28.07;100665.06;5049304;28;20075;-70
2023/03/17 10:29:21;;;;;;;4.32;1.23;;;;;;;14.69;28.91;100674.22;5047998;28;20126;-70
2023/03/17 10:31:47;;;;;;;;;;;;;;;14.61;28.13;100672.97;5048686;28;20093;-70
2023/03/17 10:34:26;;;;;;;1.27;0.90;;;;;;;14.60;28.95;100672.13;5049691;28;19924;-70
2023/03/17 10:37:04;;;;;;;7.20;1.52;;;;;;;14.21;29.81;100660.41;5048900;28;20028;-70
2023/03/17 10:39:30;;;;;;;1.88;0.98;;;;;;;14.86;28.32;100664.47;5048539;28;20044;-70
2023/03/17 10:42:07;;;;;;;2.75;1.65;;;;;;;14.26;29.07;100666.22;5048361;28;20687;-69
2023/03/17 10:44:33;;;;;;;3.63;1.27;;;;;;;13.88;30.18;100664.03;5046616;28;20040;-69
2023/03/17 10:46:59;;;;;;;8.32;1.10;;;;;;;14.01;29.94;100674.72;5048662;28;20032;-70
2023/03/17 10:49:25;;;;;;;2.08;1.27;;;;;;;15.55;28.44;100668.88;5047457;28;20123;-71
2023/03/17 10:51:52;;;;;;;6.28;1.63;;;;;;;16.45;27.30;100660.38;5049669;28;20028;-72
2023/03/17 10:54:19;;;;;;;2.95;1.73;;;;;;;16.36;27.26;100657.41;5031571;28;20154;-69
2023/03/17 10:56:47;;;;;;;6.15;1.45;;;;;;;16.08;27.25;100647.88;5050305;28;20036;-71
2023/03/17 10:59:18;;;;;;;7.55;1.55;;;;;;;14.65;28.45;100641.13;5048356;28;20064;-70
2023/03/17 11:01:59;;;;;;;6.20;1.58;;;;;;;15.36;27.20;100668.38;5048891;28;20637;-70
2023/03/17 11:04:37;;;;;;;3.67;1.73;;;;;;;14.93;28.00;100660.50;5026313;28;20048;-71
2023/03/17 11:07:19;;;;;;;4.30;1.00;;;;;;;15.92;27.12;100669.09;5030757;28;20052;-70
2023/03/17 11:09:49;;;;;;;2.67;1.40;;;;;;;16.46;27.19;100656.78;5050228;28;20051;-71
2023/03/17 11:12:24;;;;;;;6.07;1.27;;;;;;;14.42;28.77;100660.09;5041480;28;20132;-70
2023/03/17 11:15:00;;;;;;;4.88;1.45;;;;;;;14.99;28.04;100662.72;5049782;28;21952;-70
2023/03/17 11:17:32;;;;;;;2.13;1.08;;;;;;;15.72;28.28;100661.66;5049000;28;20032;-70
2023/03/17 11:20:04;;;;;;;3.25;1.70;;;;;;;16.10;27.83;100664.44;5048925;28;20075;-70
2023/03/17 11:22:39;;;;;;;4.47;1.73;;;;;;;15.47;28.26;100665.91;5052204;28;20536;-69
2023/03/17 11:25:12;;;;;;;2.40;1.63;;;;;;;15.70;27.64;100661.75;5053134;28;20047;-69
2023/03/17 11:27:46;;;;;;;3.92;1.33;;;;;;;14.69;29.14;100650.53;5050474;28;20043;-71
2023/03/17 11:30:34;;;;;;;3.88;1.65;;;;;;;15.38;28.31;100653.31;5054757;28;20070;-71
2023/03/17 11:33:32;;;;;;;4.15;1.52;;;;;;;16.10;27.42;100648.63;5050272;28;20987;-70
2023/03/17 11:36:27;;;;;;;2.75;1.10;;;;;;;16.76;26.48;100646.78;5048398;28;20098;-70